Lake Worth, FL (33449)

2:18 PM EDT on September 02, 2015 (GMT -0400)
D A N E T S | | Change Station
CLOSE
Current Station
Personal Weather Station
Location: Lake Worth, FL
Elevation: 25 ft
Nearby Weather Stations

Elev 25 ft 26.61 °N, 80.17 °W | Updated 3 minutes ago

Overcast
Overcast
78.2 °F
Feels Like 81 °F
N
6.0
Wind Variable Wind from West
Gusts 8.0 mph

Today
High -- | Low -- °F
--% Chance of Precip.
Yesterday
High -- | Low -- °F
Precip. -- in
7:00 AM 7:39 PM
Waning Gibbous, 78% visible
Pressure 30.06 in
Visibility 10.0 miles
Clouds Scattered Clouds 3200 ft
Mostly Cloudy 4800 ft
Mostly Cloudy 9000 ft
Heat Index 81 °F
Dew Point 72 °F
Humidity 80%
Rainfall 0.26 in
Snow Depth Not available.
UV 1.5 out of 12
Pollen 4.70 out of 12
Air Quality Not available.
Flu Activity Not available.
SPECI KPBI 021757Z VRB05KT 10SM TS SCT032CB BKN048 BKN090 32/24 A3006 RMK AO2 TSB57 OCNL LTGICCG SW-W TS SW-W MOV N CB DSNT W-NW T03220239
Pressure 30.06 in
Visibility 10.0 miles
Clouds Scattered Clouds 3200 ft
Mostly Cloudy 4800 ft
Mostly Cloudy 9000 ft
Heat Index 81 °F
Dew Point 72 °F
Humidity 80%
Rainfall 0.26 in
Snow Depth Not available.
UV 1.5 out of 12
Pollen 4.70 out of 12
Air Quality Not available.
Flu Activity Not available.
SPECI KPBI 021757Z VRB05KT 10SM TS SCT032CB BKN048 BKN090 32/24 A3006 RMK AO2 TSB57 OCNL LTGICCG SW-W TS SW-W MOV N CB DSNT W-NW T03220239

10-Day Weather Forecast

×

Almanac

Astronomy

Sep. 02, 2015 Rise Set
Actual Time
Civil Twilight
Nautical Twilight
Astronomical Twilight
Moon
Length of Visible Light
Length of Day
Tomorrow will be .
, % of the Moon is Illuminated

Today's Extremes

State Highs State Lows

Community

WunderPhotos

Upload Photos

1,851,790 photos uploaded!

WunderBlogs® & News

Nearby

Air Quality

  Air Quality AQ Index Pollutant
Not available.

Snow Depth

Station Depth Elevation

Earthquake Activity

City Distance Mag. Time & Date
Minimum magnitude displayed is 2.5.

Coastal Water Temperatures

Place Temperature

Stations

Nearby Weather Stations

Station Location Temp. Windchill Dew Point Humidity Wind Precip. Elev Updated Type